Time;durP1;ratioP1;P1;durP2;ratioP2;P2;SDS_P1;SDS_P2;PMS_P1;PMS_P2;Temp;Humidity;BMP_temperature;BMP_pressure;BME280_temperature;BME280_humidity;BME280_pressure;Samples;Min_cycle;Max_cycle;Signal;HPM_P1;HPM_P2
2023/04/11 00:00:17;;;;;;;16.83;4.30;;;;;;;8.85;95.85;100821.44;5053855;28;20017;-86
2023/04/11 00:02:42;;;;;;;13.07;3.87;;;;;;;8.81;95.49;100821.44;5052409;28;20029;-87
2023/04/11 00:05:08;;;;;;;13.50;3.50;;;;;;;8.80;95.54;100816.28;5053547;28;20071;-87
2023/04/11 00:07:33;;;;;;;14.97;3.90;;;;;;;8.78;95.58;100818.03;5052921;28;20063;-86
2023/04/11 00:09:59;;;;;;;10.90;3.80;;;;;;;8.76;95.32;100819.78;5052905;28;20033;-87
2023/04/11 00:12:24;;;;;;;16.63;4.03;;;;;;;8.70;95.00;100810.34;5052778;28;20052;-86
2023/04/11 00:14:52;;;;;;;15.03;3.73;;;;;;;8.73;94.91;100823.25;5053593;28;20036;-87
2023/04/11 00:17:18;;;;;;;12.70;3.75;;;;;;;8.70;95.24;100819.84;5052527;28;20362;-86
2023/04/11 00:19:45;;;;;;;12.33;3.80;;;;;;;8.69;95.36;100824.13;5053073;28;20043;-86
2023/04/11 00:22:15;;;;;;;12.20;3.85;;;;;;;8.71;94.82;100824.97;5053030;28;20031;-86
2023/04/11 00:24:40;;;;;;;16.02;3.90;;;;;;;8.68;94.97;100829.34;5052220;28;20035;-87
2023/04/11 00:27:12;;;;;;;19.87;5.43;;;;;;;8.59;94.75;100815.59;5052935;28;20029;-86
2023/04/11 00:29:37;;;;;;;15.68;3.75;;;;;;;8.58;94.76;100826.81;5052746;28;20025;-87
2023/04/11 00:32:02;;;;;;;14.90;4.23;;;;;;;8.57;94.53;100830.28;5051922;28;20079;-87
2023/04/11 00:34:28;;;;;;;14.27;4.30;;;;;;;8.48;94.92;100830.34;5052792;28;20028;-86
2023/04/11 00:36:53;;;;;;;14.87;3.77;;;;;;;8.46;94.52;100832.88;5052585;28;20055;-86
2023/04/11 00:39:21;;;;;;;12.43;3.90;;;;;;;8.43;94.55;100840.69;5051830;28;20056;-86
2023/04/11 00:41:47;;;;;;;16.33;4.28;;;;;;;8.40;95.41;100826.88;5052916;28;20040;-86
2023/04/11 00:44:12;;;;;;;16.23;4.37;;;;;;;8.34;95.87;100830.38;5052978;28;20025;-87
2023/04/11 00:46:43;;;;;;;12.60;3.67;;;;;;;8.23;94.62;100821.81;5051505;28;20067;-86
2023/04/11 00:49:09;;;;;;;15.63;3.90;;;;;;;8.26;95.56;100834.75;5052512;28;20025;-86
2023/04/11 00:51:35;;;;;;;16.42;3.65;;;;;;;8.25;95.70;100839.06;5052486;28;20032;-86
2023/04/11 00:54:00;;;;;;;14.60;3.87;;;;;;;8.19;95.45;100837.38;5051089;28;20021;-86
2023/04/11 00:56:27;;;;;;;17.20;4.63;;;;;;;8.23;95.44;100825.28;5052743;28;20025;-86
2023/04/11 00:58:53;;;;;;;16.17;4.43;;;;;;;8.23;96.13;100834.75;5052136;28;20440;-86
2023/04/11 01:01:18;;;;;;;19.20;4.50;;;;;;;8.22;95.85;100823.56;5052534;28;20032;-87
2023/04/11 01:03:44;;;;;;;17.37;5.17;;;;;;;8.18;96.24;100814.97;5052041;28;20032;-87
2023/04/11 01:06:13;;;;;;;13.40;3.87;;;;;;;8.22;95.49;100820.97;5051883;28;20469;-86
2023/04/11 01:08:41;;;;;;;13.30;3.72;;;;;;;8.20;95.66;100814.97;5052536;28;20029;-87
2023/04/11 01:11:26;;;;;;;11.98;3.75;;;;;;;8.23;95.55;100824.41;5052916;28;20033;-87
2023/04/11 01:13:54;;;;;;;17.80;4.35;;;;;;;8.23;95.89;100814.06;5051452;28;20021;-86
2023/04/11 01:16:20;;;;;;;17.17;4.35;;;;;;;8.22;95.30;100813.22;5051979;28;20017;-86
2023/04/11 01:18:47;;;;;;;12.27;3.87;;;;;;;8.25;95.24;100826.16;5075461;22;20044;-87
2023/04/11 01:21:12;;;;;;;16.02;3.92;;;;;;;8.26;95.11;100825.28;5071842;28;20388;-86
2023/04/11 01:23:38;;;;;;;13.90;3.67;;;;;;;8.20;95.45;100822.72;5120095;22;20143;-86
2023/04/11 01:26:03;;;;;;;15.70;3.43;;;;;;;8.15;95.80;100821.91;5052220;28;20109;-86
2023/04/11 01:28:47;;;;;;;15.67;3.60;;;;;;;8.01;95.28;100798.69;5050894;28;20124;-86
2023/04/11 01:31:12;;;;;;;15.07;3.70;;;;;;;8.02;95.31;100803.00;5052682;28;20017;-86
2023/04/11 01:33:37;;;;;;;12.17;3.20;;;;;;;8.10;95.19;100832.25;5052134;28;20033;-86
2023/04/11 01:36:03;;;;;;;12.83;3.43;;;;;;;8.11;95.22;100827.94;5051537;28;20031;-87
2023/04/11 01:38:28;;;;;;;15.68;3.63;;;;;;;8.04;95.09;100829.69;5052019;28;20112;-87
2023/04/11 01:40:56;;;;;;;19.03;4.10;;;;;;;8.03;95.16;100835.72;5052298;28;20047;-86
2023/04/11 01:43:22;;;;;;;14.88;3.60;;;;;;;8.03;94.85;100838.31;5052023;28;20528;-87
2023/04/11 01:45:47;;;;;;;20.07;4.23;;;;;;;8.01;95.55;100845.22;5052298;28;20129;-86
2023/04/11 01:48:14;;;;;;;14.30;3.70;;;;;;;8.00;94.97;100844.34;5051292;28;20036;-86
2023/04/11 01:50:39;;;;;;;15.73;3.63;;;;;;;7.95;95.66;100856.44;5052298;28;20052;-87
2023/04/11 01:53:04;;;;;;;15.27;3.70;;;;;;;7.91;95.43;100848.69;5052228;28;20448;-86
2023/04/11 01:55:30;;;;;;;14.73;3.60;;;;;;;7.87;95.71;100856.50;5050842;28;20025;-86
2023/04/11 01:57:55;;;;;;;16.33;4.10;;;;;;;7.88;94.62;100853.00;5051947;28;20024;-86
2023/04/11 02:00:21;;;;;;;16.70;3.90;;;;;;;7.85;95.12;100863.38;5051925;28;20025;-87
2023/04/11 02:02:51;;;;;;;18.87;3.93;;;;;;;7.82;95.71;100860.78;5051275;28;20372;-87
2023/04/11 02:05:17;;;;;;;14.40;3.95;;;;;;;7.81;95.58;100868.56;5052937;28;20100;-86
2023/04/11 02:07:43;;;;;;;12.10;3.33;;;;;;;7.80;96.36;100867.69;5055738;28;20467;-87
2023/04/11 02:10:09;;;;;;;19.52;4.28;;;;;;;7.80;96.59;100872.00;5055189;28;20350;-86
2023/04/11 02:12:35;;;;;;;13.80;3.63;;;;;;;7.80;95.77;100872.84;5055615;28;20025;-87
2023/04/11 02:15:09;;;;;;;16.50;3.80;;;;;;;7.80;95.98;100878.03;5055445;28;20036;-85
2023/04/11 02:17:35;;;;;;;15.43;3.45;;;;;;;7.84;95.48;100876.28;5056207;28;20586;-86
2023/04/11 02:20:01;;;;;;;13.88;3.42;;;;;;;7.80;95.08;100872.00;5055875;28;20028;-86
2023/04/11 02:22:26;;;;;;;17.07;3.97;;;;;;;7.80;95.92;100883.19;5055400;28;20384;-86
2023/04/11 02:24:52;;;;;;;16.57;3.80;;;;;;;7.79;95.27;100873.72;5054514;28;20057;-87
2023/04/11 02:27:17;;;;;;;17.47;4.23;;;;;;;7.78;95.63;100884.91;5055323;28;20024;-86
2023/04/11 02:29:42;;;;;;;18.50;3.53;;;;;;;7.76;95.61;100888.38;5055289;28;20025;-87
2023/04/11 02:32:08;;;;;;;17.03;3.70;;;;;;;7.75;95.43;100878.91;5054571;28;20025;-86
2023/04/11 02:34:33;;;;;;;10.37;3.40;;;;;;;7.81;95.43;100877.16;5055181;28;20483;-87
2023/04/11 02:36:58;;;;;;;15.67;3.90;;;;;;;7.77;95.65;100877.19;5055383;28;20020;-85
2023/04/11 02:39:24;;;;;;;13.67;3.47;;;;;;;7.76;96.04;100889.25;5054139;28;20029;-86
2023/04/11 02:41:50;;;;;;;12.70;3.40;;;;;;;7.75;96.30;100886.66;5054963;28;20092;-86
2023/04/11 02:44:18;;;;;;;14.03;3.40;;;;;;;7.74;95.55;100890.97;5054290;28;20362;-86
2023/04/11 02:46:50;;;;;;;15.75;3.80;;;;;;;7.73;95.17;100881.50;5054419;28;20458;-86
2023/04/11 02:49:15;;;;;;;16.80;3.47;;;;;;;7.73;95.04;100892.69;5055201;28;20021;-86
2023/04/11 02:51:40;;;;;;;18.30;3.67;;;;;;;7.71;94.81;100893.56;5054062;28;20017;-86
2023/04/11 02:54:06;;;;;;;12.97;3.40;;;;;;;7.69;94.90;100890.13;5054995;28;20029;-86
2023/04/11 02:56:42;;;;;;;13.87;3.63;;;;;;;7.60;94.74;100887.56;5054024;28;20548;-86
2023/04/11 02:59:13;;;;;;;14.83;3.23;;;;;;;7.56;94.50;100889.28;5054386;28;20021;-86
2023/04/11 03:01:38;;;;;;;11.57;3.38;;;;;;;7.53;94.71;100890.16;5054385;28;20147;-86
2023/04/11 03:04:03;;;;;;;15.80;3.13;;;;;;;7.54;94.36;100898.75;5054501;28;20029;-86
2023/04/11 03:06:29;;;;;;;18.23;3.55;;;;;;;7.44;94.20;100885.00;5053589;28;20025;-86
2023/04/11 03:09:12;;;;;;;16.57;3.40;;;;;;;7.49;94.19;100903.94;5054717;28;20033;-86
2023/04/11 03:11:37;;;;;;;12.30;3.03;;;;;;;7.46;94.79;100898.78;5054036;28;20025;-86
2023/04/11 03:14:03;;;;;;;14.20;2.70;;;;;;;7.45;94.56;100897.03;5053877;28;20021;-86
2023/04/11 03:16:28;;;;;;;12.95;2.90;;;;;;;7.42;94.95;100892.75;5053645;28;20100;-85
2023/04/11 03:19:02;;;;;;;10.00;2.70;;;;;;;7.40;94.59;100885.88;5053272;28;20111;-86
2023/04/11 03:21:28;;;;;;;8.75;2.33;;;;;;;7.42;94.42;100897.91;5053533;28;20044;-86
2023/04/11 03:23:53;;;;;;;13.07;2.80;;;;;;;7.50;94.30;100909.94;5053859;28;20389;-87
2023/04/11 03:26:18;;;;;;;8.85;2.35;;;;;;;7.52;94.17;100918.56;5054425;28;20021;-86
2023/04/11 03:28:46;;;;;;;8.37;2.20;;;;;;;7.55;94.12;100923.72;5053217;28;20020;-87
2023/04/11 03:31:12;;;;;;;7.32;2.47;;;;;;;7.54;93.90;100920.28;5051999;28;20067;-86
2023/04/11 03:33:38;;;;;;;10.00;2.40;;;;;;;7.61;93.42;100923.72;5053421;28;20025;-86
2023/04/11 03:36:04;;;;;;;6.50;2.37;;;;;;;7.56;93.64;100930.63;5053754;28;20389;-86
2023/04/11 03:38:36;;;;;;;10.70;2.40;;;;;;;7.58;92.38;100926.31;5053845;28;20524;-86
2023/04/11 03:41:01;;;;;;;8.77;2.17;;;;;;;7.55;92.48;100924.56;5053522;28;20361;-86
2023/04/11 03:43:27;;;;;;;5.23;2.07;;;;;;;7.57;92.58;100933.19;5053521;28;20029;-86
2023/04/11 03:45:52;;;;;;;5.57;2.00;;;;;;;7.62;92.68;100934.91;5053688;28;20024;-86
2023/04/11 03:48:18;;;;;;;10.27;1.90;;;;;;;7.61;92.11;100931.44;5052367;28;20025;-86
2023/04/11 03:50:43;;;;;;;8.10;2.20;;;;;;;7.61;91.83;100938.34;5053810;28;20028;-86
2023/04/11 03:53:11;;;;;;;11.68;2.38;;;;;;;7.58;91.91;100932.31;5053518;28;20064;-86
2023/04/11 03:55:37;;;;;;;6.60;1.92;;;;;;;7.61;92.06;100930.59;5052810;28;20028;-86
2023/04/11 03:58:02;;;;;;;7.53;2.00;;;;;;;7.61;92.03;100940.94;5053666;28;20108;-86
2023/04/11 04:00:27;;;;;;;6.82;1.70;;;;;;;7.57;92.02;100933.19;5053124;28;20029;-86
2023/04/11 04:02:52;;;;;;;7.97;2.20;;;;;;;7.55;91.72;100937.50;5053094;28;20111;-86
2023/04/11 04:05:18;;;;;;;8.50;2.05;;;;;;;7.49;91.99;100932.34;5053287;28;20422;-86
2023/04/11 04:07:43;;;;;;;9.20;2.17;;;;;;;7.49;91.78;100934.94;5053048;28;20228;-86
2023/04/11 04:10:09;;;;;;;9.73;1.90;;;;;;;7.46;91.71;100945.25;5052823;28;20028;-87
2023/04/11 04:12:34;;;;;;;8.53;2.23;;;;;;;7.47;91.40;100938.38;5053351;28;20028;-87
2023/04/11 04:14:59;;;;;;;8.25;2.17;;;;;;;7.42;91.36;100943.56;5053523;28;20108;-86
2023/04/11 04:17:26;;;;;;;9.15;2.03;;;;;;;7.35;91.45;100940.13;5052424;28;20116;-86
2023/04/11 04:19:51;;;;;;;7.25;2.13;;;;;;;7.35;91.47;100945.28;5053615;28;20029;-86
2023/04/11 04:22:21;;;;;;;10.93;2.50;;;;;;;7.33;91.68;100953.84;5052911;28;20021;-87
2023/04/11 04:24:46;;;;;;;11.57;2.72;;;;;;;7.29;91.30;100954.75;5052105;28;20041;-86
2023/04/11 04:27:12;;;;;;;12.90;2.60;;;;;;;7.23;91.38;100953.88;5052826;28;20392;-87
2023/04/11 04:29:45;;;;;;;9.15;2.08;;;;;;;7.18;91.74;100952.13;5052820;28;20059;-86
2023/04/11 04:32:21;;;;;;;9.80;2.40;;;;;;;7.19;91.55;100959.03;5052747;28;20041;-86
2023/04/11 04:34:48;;;;;;;9.07;2.55;;;;;;;7.13;91.86;100962.47;5052525;28;20033;-86
2023/04/11 04:37:22;;;;;;;;;;;;;;;7.11;91.90;100969.34;5053281;28;20410;-90
2023/04/11 04:39:55;;;;;;;8.15;2.20;;;;;;;7.02;92.02;100966.75;5053382;28;19912;-87
2023/04/11 04:42:25;;;;;;;10.32;2.67;;;;;;;7.04;91.72;100976.22;5074115;22;20052;-89
2023/04/11 04:44:57;;;;;;;8.25;2.25;;;;;;;6.98;92.02;100975.38;5073371;28;20031;-91
2023/04/11 04:47:32;;;;;;;6.68;1.85;;;;;;;6.97;92.62;100983.97;5072578;28;20453;-84
2023/04/11 04:49:58;;;;;;;9.13;2.28;;;;;;;6.94;92.38;100985.69;5072960;28;20383;-84
2023/04/11 04:52:24;;;;;;;8.47;2.07;;;;;;;6.91;93.29;100995.97;5071387;28;20115;-84
2023/04/11 04:54:50;;;;;;;8.75;2.28;;;;;;;6.87;92.94;100999.41;5069116;22;20045;-84
2023/04/11 04:57:22;;;;;;;9.20;2.10;;;;;;;6.84;93.07;101012.31;5052358;28;20418;-84
2023/04/11 04:59:47;;;;;;;8.38;2.17;;;;;;;6.84;92.55;101012.31;5052072;28;20028;-84
2023/04/11 05:02:12;;;;;;;12.43;2.93;;;;;;;6.78;93.29;101007.13;5052312;28;20029;-85
2023/04/11 05:04:37;;;;;;;11.47;2.63;;;;;;;6.77;92.95;101021.75;5052187;28;20020;-84
2023/04/11 05:07:03;;;;;;;9.85;2.42;;;;;;;6.75;94.17;101015.72;5051760;28;20044;-84
2023/04/11 05:09:28;;;;;;;8.67;2.63;;;;;;;6.75;93.19;101028.63;5052484;28;20032;-84
2023/04/11 05:11:53;;;;;;;9.83;2.30;;;;;;;6.74;93.37;101023.47;5052113;28;20021;-83
2023/04/11 05:14:19;;;;;;;10.07;2.30;;;;;;;6.72;93.72;101026.00;5052176;28;20024;-84
2023/04/11 05:16:45;;;;;;;6.43;2.00;;;;;;;6.71;93.62;101024.28;5051772;28;20509;-84
2023/04/11 05:19:10;;;;;;;8.70;2.40;;;;;;;6.71;93.19;101031.19;5051667;28;20021;-89
2023/04/11 05:21:37;;;;;;;7.75;2.20;;;;;;;6.70;93.73;101040.63;5052411;28;20048;-83
2023/04/11 05:24:02;;;;;;;8.38;2.05;;;;;;;6.67;93.29;101039.75;5050978;28;20013;-83
2023/04/11 05:26:27;;;;;;;10.43;2.47;;;;;;;6.66;93.48;101033.75;5051095;28;20033;-86
2023/04/11 05:28:53;;;;;;;11.93;2.23;;;;;;;6.67;93.09;101035.47;5052445;28;20039;-86
2023/04/11 05:31:18;;;;;;;8.35;2.28;;;;;;;6.69;93.31;101043.19;5052600;28;20041;-85
2023/04/11 05:33:43;;;;;;;5.30;1.63;;;;;;;6.69;93.25;101040.63;5051251;28;20021;-85
2023/04/11 05:36:21;;;;;;;6.70;2.10;;;;;;;6.67;93.61;101040.63;5052090;28;20112;-86
2023/04/11 05:38:46;;;;;;;4.90;1.88;;;;;;;6.71;93.47;101046.66;5052158;28;20021;-85
2023/04/11 05:41:12;;;;;;;6.17;1.90;;;;;;;6.67;93.39;101050.06;5054259;28;20017;-89
2023/04/11 05:43:37;;;;;;;8.77;2.05;;;;;;;6.75;92.91;101054.41;5056833;28;20353;-90
2023/04/11 05:46:03;;;;;;;8.80;2.23;;;;;;;6.72;93.52;101062.13;5056817;28;20025;-86
2023/04/11 05:48:29;;;;;;;6.97;1.90;;;;;;;6.76;93.21;101068.16;5055612;28;20511;-86
2023/04/11 05:50:57;;;;;;;8.40;1.93;;;;;;;6.74;93.67;101072.47;5056451;28;20116;-86
2023/04/11 05:53:23;;;;;;;8.27;2.10;;;;;;;6.78;93.79;101074.19;5055698;28;20488;-82
2023/04/11 05:55:49;;;;;;;6.70;1.90;;;;;;;6.80;93.76;101080.22;5053725;28;20073;-87
2023/04/11 05:58:14;;;;;;;10.63;2.00;;;;;;;6.87;93.15;101091.44;5054716;28;20043;-87
2023/04/11 06:00:40;;;;;;;9.43;2.47;;;;;;;6.96;93.09;101091.47;5054700;28;20021;-87
2023/04/11 06:03:11;;;;;;;5.20;2.00;;;;;;;7.05;92.99;101095.81;5054290;28;20021;-87
2023/04/11 06:05:59;;;;;;;6.15;1.92;;;;;;;7.12;92.71;101094.94;5054246;28;20025;-87
2023/04/11 06:08:39;;;;;;;7.00;2.25;;;;;;;7.09;93.13;101089.81;5053696;28;20369;-87
2023/04/11 06:11:05;;;;;;;8.00;2.05;;;;;;;7.20;91.70;101098.44;5054847;28;20028;-88
2023/04/11 06:13:45;;;;;;;9.43;2.50;;;;;;;7.22;91.78;101107.03;5054192;28;20033;-88
2023/04/11 06:16:10;;;;;;;7.65;2.10;;;;;;;7.17;92.40;101098.44;5054007;28;20151;-88
2023/04/11 06:18:36;;;;;;;10.10;2.30;;;;;;;7.21;91.28;101104.44;5054376;28;20449;-89
2023/04/11 06:21:01;;;;;;;9.00;2.07;;;;;;;7.20;91.79;101098.44;5054913;28;20026;-89
2023/04/11 06:23:26;;;;;;;6.57;2.10;;;;;;;7.21;90.96;101105.31;5053972;28;20115;-89
2023/04/11 06:25:52;;;;;;;9.90;2.30;;;;;;;7.24;91.12;101104.47;5054700;28;20029;-89
2023/04/11 06:28:17;;;;;;;9.10;2.30;;;;;;;7.25;91.35;101106.19;5054686;28;20021;-89
2023/04/11 06:30:45;;;;;;;6.90;2.10;;;;;;;7.26;91.43;101107.94;5054042;28;20491;-89
2023/04/11 06:33:10;;;;;;;7.50;2.00;;;;;;;7.29;91.60;101095.00;5054853;28;20029;-90
2023/04/11 06:35:35;;;;;;;4.43;1.60;;;;;;;7.33;91.44;101096.75;5054603;28;20116;-89
2023/04/11 06:38:00;;;;;;;4.88;1.90;;;;;;;7.41;91.82;101109.69;5054418;28;20029;-89
2023/04/11 06:40:31;;;;;;;7.27;2.20;;;;;;;7.43;91.43;101107.94;5054628;28;20491;-89
2023/04/11 06:42:58;;;;;;;8.27;1.90;;;;;;;7.45;91.83;101105.38;5054001;28;20037;-88
2023/04/11 06:45:25;;;;;;;7.95;2.10;;;;;;;7.52;90.61;101102.81;5053971;28;20024;-87
2023/04/11 06:47:50;;;;;;;10.05;2.10;;;;;;;7.56;90.03;101101.09;5054487;28;20090;-88
2023/04/11 06:52:41;;;;;;;10.82;2.35;;;;;;;7.72;89.50;101112.28;5021994;22;1097601;-88
2023/04/11 06:55:07;;;;;;;9.70;2.50;;;;;;;7.75;90.33;101127.81;5062305;22;20056;-87
2023/04/11 06:57:33;;;;;;;8.82;2.28;;;;;;;7.80;89.23;101128.66;5054298;28;20040;-88
2023/04/11 06:59:58;;;;;;;6.43;2.23;;;;;;;7.89;89.83;101130.41;5055256;28;20496;-88
2023/04/11 07:02:24;;;;;;;7.67;2.20;;;;;;;7.97;88.26;101123.50;5054827;28;20477;-88
2023/04/11 07:04:50;;;;;;;10.95;2.30;;;;;;;8.12;89.58;101132.13;5054715;28;20040;-88
2023/04/11 07:07:15;;;;;;;8.17;2.20;;;;;;;9.48;87.65;101141.19;5055027;28;20017;-88
2023/04/11 07:09:45;;;;;;;9.50;2.55;;;;;;;11.73;83.52;101130.19;5054653;28;20024;-88
2023/04/11 07:12:11;;;;;;;8.77;2.10;;;;;;;13.49;70.51;101130.38;5054185;28;20063;-88
2023/04/11 07:14:36;;;;;;;8.83;2.03;;;;;;;14.59;69.11;101132.88;5053774;28;20044;-88
2023/04/11 07:17:01;;;;;;;7.57;1.90;;;;;;;15.39;63.25;101150.63;5054919;28;20100;-89
2023/04/11 07:19:29;;;;;;;10.63;2.20;;;;;;;15.55;58.87;101151.00;5054569;28;20462;-88
2023/04/11 07:21:55;;;;;;;8.95;2.08;;;;;;;15.08;60.37;101156.78;5055175;28;20025;-89
2023/04/11 07:24:21;;;;;;;9.20;2.30;;;;;;;13.88;61.16;101152.94;5054353;28;20013;-88
2023/04/11 07:26:49;;;;;;;10.70;2.20;;;;;;;12.69;66.78;101155.47;5053855;28;20009;-88
2023/04/11 07:29:14;;;;;;;8.18;2.05;;;;;;;11.70;68.37;101165.78;5054563;28;20520;-88
2023/04/11 07:31:40;;;;;;;8.63;2.00;;;;;;;10.90;70.41;101176.34;5054408;28;20021;-88
2023/04/11 07:34:08;;;;;;;6.70;2.20;;;;;;;10.38;73.21;101171.66;5054018;28;20032;-88
2023/04/11 07:36:33;;;;;;;10.13;2.28;;;;;;;10.05;74.94;101162.41;5054415;28;20025;-88
2023/04/11 07:38:59;;;;;;;11.53;2.43;;;;;;;9.88;75.26;101165.13;5054557;28;20043;-89
2023/04/11 07:41:24;;;;;;;9.77;2.40;;;;;;;9.82;77.55;101162.59;5054011;28;20036;-88
2023/04/11 07:43:49;;;;;;;11.63;2.73;;;;;;;9.67;76.38;101173.94;5054517;28;20020;-89
2023/04/11 07:46:15;;;;;;;9.53;2.73;;;;;;;9.60;77.82;101172.22;5054174;28;20017;-89
2023/04/11 07:48:40;;;;;;;11.13;3.03;;;;;;;9.54;77.76;101162.75;5053228;28;20112;-88
2023/04/11 07:51:25;;;;;;;8.43;2.13;;;;;;;9.54;77.64;101170.53;5054552;28;20052;-88
2023/04/11 07:54:02;;;;;;;8.63;2.38;;;;;;;9.58;77.25;101168.78;5053433;28;20604;-88
2023/04/11 07:56:38;;;;;;;10.43;2.55;;;;;;;9.61;77.90;101163.56;5053735;28;20108;-88
2023/04/11 07:59:03;;;;;;;9.83;2.63;;;;;;;9.74;76.77;101167.81;5054259;28;20043;-88
2023/04/11 08:01:32;;;;;;;10.67;2.50;;;;;;;9.71;76.95;101154.03;5053175;28;20029;-88
2023/04/11 08:03:57;;;;;;;10.05;2.50;;;;;;;9.80;76.56;101163.44;5053260;28;20033;-88
2023/04/11 08:06:23;;;;;;;9.13;2.30;;;;;;;10.02;75.95;101175.38;5054145;28;20071;-88
2023/04/11 08:09:04;;;;;;;6.63;2.17;;;;;;;10.06;75.05;101184.03;5053434;28;20107;-88
2023/04/11 08:11:30;;;;;;;11.07;2.70;;;;;;;10.01;73.31;101193.56;5053796;28;20024;-88
2023/04/11 08:13:58;;;;;;;10.07;2.37;;;;;;;9.88;73.97;101192.78;5053913;28;20107;-89
2023/04/11 08:18:48;;;;;;;8.45;2.55;;;;;;;10.01;74.46;101197.03;5129248;22;20052;-89
2023/04/11 08:21:14;;;;;;;8.67;2.30;;;;;;;10.09;74.21;101196.09;5094249;23;20036;-89
2023/04/11 08:23:40;;;;;;;7.50;2.30;;;;;;;10.11;75.27;101192.63;5093338;28;20024;-88
2023/04/11 08:26:10;;;;;;;;;;;;;;;10.27;73.55;101198.53;5089988;28;20103;-89
2023/04/11 08:28:35;;;;;;;7.28;2.00;;;;;;;10.46;71.83;101206.22;5073984;28;19962;-88
2023/04/11 08:31:02;;;;;;;11.50;2.27;;;;;;;10.38;69.60;101208.88;5072888;28;20055;-89
2023/04/11 08:33:28;;;;;;;;;;;;;;;10.20;70.77;101223.66;5073754;28;20020;-89
2023/04/11 08:35:53;;;;;;;9.67;2.53;;;;;;;10.07;73.03;101222.06;5072884;28;20299;-88
2023/04/11 08:38:19;;;;;;;6.80;2.30;;;;;;;10.11;70.77;101215.94;5073670;28;20021;-88
2023/04/11 08:40:45;;;;;;;6.70;2.10;;;;;;;10.15;71.74;101232.34;5073839;28;20028;-88
2023/04/11 08:43:13;;;;;;;7.40;1.97;;;;;;;10.29;70.07;101224.47;5072808;28;20024;-88
2023/04/11 08:45:39;;;;;;;8.23;2.20;;;;;;;10.34;67.17;101239.13;5073838;28;20115;-88
2023/04/11 08:48:05;;;;;;;7.87;2.00;;;;;;;10.31;69.46;101223.59;5073212;28;20130;-88
2023/04/11 08:50:31;;;;;;;7.13;2.10;;;;;;;10.53;68.10;101225.19;5072219;28;20028;-86
2023/04/11 08:53:01;;;;;;;7.43;2.00;;;;;;;10.70;68.09;101231.06;5072859;28;20024;-86
2023/04/11 08:55:26;;;;;;;4.88;2.10;;;;;;;10.80;66.96;101237.03;5072062;28;20033;-86
2023/04/11 08:57:52;;;;;;;8.60;2.27;;;;;;;10.63;66.53;101230.25;5089736;28;20093;-87
2023/04/11 09:00:23;;;;;;;9.55;2.35;;;;;;;10.60;67.93;101222.50;5093093;28;20020;-86
2023/04/11 09:02:59;;;;;;;7.85;2.00;;;;;;;10.65;69.48;101225.91;5093005;28;20490;-86
2023/04/11 09:05:50;;;;;;;6.22;1.80;;;;;;;10.80;67.10;101237.88;5092089;28;20028;-83
2023/04/11 09:08:19;;;;;;;7.20;2.00;;;;;;;10.89;67.26;101229.16;5093093;28;20410;-88
2023/04/11 09:10:45;;;;;;;5.50;1.80;;;;;;;11.00;67.75;101228.19;5093463;28;20026;-88
2023/04/11 09:13:30;;;;;;;5.50;1.90;;;;;;;11.11;66.66;101228.91;5092702;28;20469;-88
2023/04/11 09:16:07;;;;;;;4.07;1.60;;;;;;;11.24;65.63;101240.00;5094588;28;20051;-88
2023/04/11 09:18:41;;;;;;;5.60;2.03;;;;;;;11.16;66.30;101224.50;5096660;28;20286;-88
2023/04/11 09:21:14;;;;;;;10.02;2.05;;;;;;;10.94;65.13;101234.28;5097315;28;20458;-88
2023/04/11 09:23:40;;;;;;;7.47;1.90;;;;;;;10.75;65.54;101231.03;5097292;28;20391;-88
2023/04/11 09:26:07;;;;;;;5.90;2.10;;;;;;;10.78;64.81;101238.78;5096087;28;20027;-88
2023/04/11 09:28:52;;;;;;;5.93;1.80;;;;;;;10.66;65.31;101243.22;5097090;28;20515;-87
2023/04/11 09:31:17;;;;;;;5.65;1.67;;;;;;;10.61;65.77;101237.19;5097639;28;20020;-88
2023/04/11 09:33:57;;;;;;;6.90;1.70;;;;;;;10.80;65.98;101243.09;5096153;28;20066;-88
2023/04/11 09:36:24;;;;;;;7.90;2.17;;;;;;;11.02;63.55;101235.06;5097145;28;20035;-88
2023/04/11 09:38:50;;;;;;;9.65;2.08;;;;;;;10.88;62.28;101237.81;5097297;28;20027;-88
2023/04/11 09:41:28;;;;;;;7.18;2.08;;;;;;;10.71;63.34;101248.38;5095968;28;20039;-87
2023/04/11 09:43:57;;;;;;;6.30;1.92;;;;;;;10.58;62.92;101241.56;5097197;28;20030;-88
2023/04/11 09:46:23;;;;;;;7.13;1.85;;;;;;;10.60;63.36;101248.44;5096180;28;20024;-88
2023/04/11 09:48:50;;;;;;;7.28;1.92;;;;;;;10.61;59.21;101252.78;5096478;28;20023;-88
2023/04/11 09:51:16;;;;;;;5.55;1.70;;;;;;;10.60;60.52;101251.03;5096692;28;20551;-88
2023/04/11 09:53:42;;;;;;;6.63;2.00;;;;;;;10.73;61.79;101248.34;5095515;28;20028;-88
2023/04/11 09:56:08;;;;;;;8.87;1.90;;;;;;;11.00;59.57;101248.94;5095129;28;20028;-88
2023/04/11 09:58:36;;;;;;;2.55;1.50;;;;;;;11.30;58.68;101249.47;5096610;28;20019;-88
2023/04/11 10:01:03;;;;;;;7.07;1.73;;;;;;;11.65;59.55;101253.38;5096076;28;20023;-88
2023/04/11 10:03:33;;;;;;;8.95;1.95;;;;;;;11.97;57.33;101249.47;5096407;28;20027;-88
2023/04/11 10:06:01;;;;;;;8.32;1.70;;;;;;;12.16;57.35;101256.13;5097056;28;20374;-88
2023/04/11 10:08:32;;;;;;;5.22;1.70;;;;;;;12.31;58.18;101243.78;5095521;28;20024;-88
2023/04/11 10:11:08;;;;;;;5.47;1.50;;;;;;;12.44;59.46;101247.91;5096328;28;20384;-88
2023/04/11 10:13:44;;;;;;;4.00;1.70;;;;;;;12.52;56.46;101251.22;5095788;28;20107;-89
2023/04/11 10:16:13;;;;;;;8.35;2.13;;;;;;;12.65;57.63;101243.22;5095347;28;20097;-87
2023/04/11 10:19:07;;;;;;;7.45;1.83;;;;;;;12.59;54.96;101264.16;5095355;28;20052;-88
2023/04/11 10:21:32;;;;;;;7.75;1.80;;;;;;;12.38;56.52;101250.63;5094946;28;20123;-87
2023/04/11 10:24:19;;;;;;;5.20;1.60;;;;;;;12.11;57.18;101259.69;5096356;28;20137;-88
2023/04/11 10:26:59;;;;;;;5.75;1.80;;;;;;;12.13;57.51;101257.94;5094301;28;20158;-87
2023/04/11 10:29:28;;;;;;;5.15;1.67;;;;;;;12.50;57.53;101255.59;5095146;28;20092;-86
2023/04/11 10:32:14;;;;;;;10.73;1.92;;;;;;;12.57;55.40;101258.97;5095539;28;20043;-89
2023/04/11 10:35:00;;;;;;;8.10;2.10;;;;;;;12.73;55.17;101256.94;5086407;28;20036;-88
2023/04/11 10:37:33;;;;;;;7.72;2.05;;;;;;;12.86;56.04;101248.91;5074295;28;20066;-88
2023/04/11 10:40:04;;;;;;;6.53;1.70;;;;;;;13.12;54.40;101253.63;5075753;28;20040;-88
2023/04/11 10:42:42;;;;;;;7.22;1.65;;;;;;;13.19;52.11;101254.38;5074672;28;20021;-86
2023/04/11 10:45:16;;;;;;;6.20;1.65;;;;;;;12.91;53.65;101260.13;5075317;28;20028;-88
2023/04/11 10:47:42;;;;;;;5.85;1.70;;;;;;;12.67;55.64;101264.88;5074774;28;20036;-88
2023/04/11 10:50:22;;;;;;;2.37;1.50;;;;;;;12.51;55.50;101253.88;5075172;28;20024;-88
2023/04/11 10:52:47;;;;;;;5.28;1.70;;;;;;;12.58;53.55;101254.63;5075248;28;20475;-88
2023/04/11 10:55:17;;;;;;;5.53;1.60;;;;;;;12.71;55.18;101263.97;5074952;28;20028;-88
2023/04/11 10:58:08;;;;;;;3.80;1.60;;;;;;;12.69;54.72;101260.50;5088260;28;20053;-87
2023/04/11 11:01:06;;;;;;;4.78;1.73;;;;;;;12.60;54.28;101258.91;5095194;28;20073;-88
2023/04/11 11:03:32;;;;;;;4.72;1.40;;;;;;;12.64;53.70;101262.31;5080850;28;20036;-88
2023/04/11 11:06:12;;;;;;;4.45;1.80;;;;;;;12.69;53.55;101270.94;5094884;28;20012;-88
2023/04/11 11:08:41;;;;;;;6.60;1.60;;;;;;;12.85;53.06;101268.03;5095497;28;20016;-89
2023/04/11 11:11:11;;;;;;;4.90;1.52;;;;;;;13.09;51.80;101259.78;5094735;28;20456;-88
2023/04/11 11:13:41;;;;;;;4.93;1.60;;;;;;;13.18;50.05;101252.66;5095390;28;20028;-88
2023/04/11 11:16:08;;;;;;;3.72;1.58;;;;;;;13.17;50.72;101259.63;5095001;28;20031;-89
2023/04/11 11:18:34;;;;;;;3.95;1.42;;;;;;;13.25;49.97;101259.47;5094360;28;20020;-89
2023/04/11 11:21:00;;;;;;;7.47;1.58;;;;;;;13.46;49.13;101259.97;5093343;28;20067;-89
2023/04/11 11:23:26;;;;;;;4.90;1.57;;;;;;;13.64;52.88;101258.72;5095129;28;20468;-87
2023/04/11 11:25:56;;;;;;;4.13;1.47;;;;;;;13.76;47.64;101263.69;5091954;28;20024;-86
2023/04/11 11:28:22;;;;;;;5.22;1.50;;;;;;;13.81;48.29;101264.41;5074450;28;20077;-88
2023/04/11 11:30:54;;;;;;;3.70;1.47;;;;;;;14.02;48.03;101262.22;5074382;28;20407;-87
2023/04/11 11:33:25;;;;;;;4.85;1.40;;;;;;;14.05;46.82;101255.19;5073050;28;20096;-87
2023/04/11 11:35:59;;;;;;;5.93;1.65;;;;;;;14.16;45.75;101260.16;5074460;28;20444;-87